Time;durP1;ratioP1;P1;durP2;ratioP2;P2;SDS_P1;SDS_P2;PMS_P1;PMS_P2;Temp;Humidity;BMP_temperature;BMP_pressure;BME280_temperature;BME280_humidity;BME280_pressure;Samples;Min_cycle;Max_cycle;Signal;HPM_P1;HPM_P2
2024/01/29 04:27:22;;;;;;;1893.30;372.95;;;;;;;-2.08;100.00;68264.56;6319199;27;21168;-83
2024/01/29 04:30:25;;;;;;;1999.90;449.48;;;;;;;-2.19;100.00;68251.94;5322769;33;33937;-84
2024/01/29 04:33:28;;;;;;;1999.90;434.08;;;;;;;-2.17;100.00;68312.34;5325519;33;34580;-84
2024/01/29 04:36:31;;;;;;;1999.90;496.35;;;;;;;-2.21;100.00;68247.59;5336638;33;33955;-84
2024/01/29 04:39:37;;;;;;;1999.90;496.23;;;;;;;-2.24;100.00;68243.56;5325375;33;34333;-84
2024/01/29 04:42:40;;;;;;;1999.90;451.08;;;;;;;-2.23;100.00;68305.47;5325140;33;33902;-84
2024/01/29 04:45:42;;;;;;;1999.90;464.70;;;;;;;-2.20;100.00;68248.16;5325667;33;34717;-84
2024/01/29 04:48:46;;;;;;;1999.90;728.30;;;;;;;-2.22;100.00;68256.31;5336639;33;34470;-84
2024/01/29 04:51:48;;;;;;;1999.90;732.67;;;;;;;-2.23;100.00;68250.53;5337028;33;33861;-84
2024/01/29 04:54:55;;;;;;;1999.90;474.05;;;;;;;-2.32;100.00;68238.13;5336323;33;34760;-84
2024/01/29 04:57:59;;;;;;;1999.90;487.52;;;;;;;-2.37;100.00;68235.03;5326642;33;34758;-84
2024/01/29 05:01:03;;;;;;;1999.90;765.08;;;;;;;-2.41;100.00;68225.19;5337200;33;33664;-84
2024/01/29 05:04:06;;;;;;;1999.90;536.90;;;;;;;-2.43;100.00;68224.94;5336233;33;34478;-84
2024/01/29 05:07:09;;;;;;;1999.90;633.95;;;;;;;-2.47;100.00;68223.53;5324288;33;34045;-84
2024/01/29 05:10:12;;;;;;;1999.90;503.25;;;;;;;-2.50;100.00;68214.84;5336488;33;34034;-84
2024/01/29 05:13:15;;;;;;;1999.90;524.65;;;;;;;-2.52;100.00;68215.16;5324564;33;33735;-84
2024/01/29 05:16:19;;;;;;;1999.90;475.95;;;;;;;-2.57;100.00;68207.41;5325547;33;34519;-88
2024/01/29 05:19:22;;;;;;;1999.90;491.15;;;;;;;-2.56;100.00;68207.97;5324553;33;33846;-88
2024/01/29 05:22:25;;;;;;;1999.90;466.50;;;;;;;-2.55;100.00;68214.91;5324657;33;34086;-88
2024/01/29 05:25:28;;;;;;;1999.90;473.05;;;;;;;-2.56;100.00;68211.16;5308714;33;34790;-84
2024/01/29 05:28:31;;;;;;;1999.90;750.78;;;;;;;-2.53;100.00;68214.59;5311230;33;34124;-84
2024/01/29 05:31:34;;;;;;;1999.90;436.00;;;;;;;-2.55;100.00;68211.72;5348343;33;36911;-84
2024/01/29 05:34:36;;;;;;;1999.90;498.37;;;;;;;-2.50;100.00;68217.47;5326799;33;34021;-84
2024/01/29 05:37:40;;;;;;;1999.90;517.03;;;;;;;-2.53;100.00;68268.94;5342939;33;34920;-84
2024/01/29 05:40:42;;;;;;;1999.90;482.25;;;;;;;-2.55;100.00;68209.09;5338499;33;33983;-84
2024/01/29 05:43:45;;;;;;;1999.90;464.25;;;;;;;-2.61;100.00;68210.63;5359437;33;35333;-84
2024/01/29 05:46:48;;;;;;;1999.90;522.87;;;;;;;-2.64;100.00;68256.84;5346071;33;35588;-84
2024/01/29 05:49:51;;;;;;;1999.90;525.58;;;;;;;-2.66;100.00;68199.69;5348269;33;35544;-83
2024/01/29 05:52:54;;;;;;;1999.90;548.00;;;;;;;-2.62;100.00;68206.88;5347963;33;33988;-84
2024/01/29 05:55:58;;;;;;;1999.90;743.37;;;;;;;-2.61;100.00;68207.44;5350182;33;34129;-84
2024/01/29 05:59:00;;;;;;;1999.90;870.25;;;;;;;-2.62;100.00;68206.31;5360129;33;34526;-84
2024/01/29 06:02:04;;;;;;;1999.90;486.15;;;;;;;-2.63;100.00;68202.53;5352206;33;34479;-84
2024/01/29 06:05:07;;;;;;;1999.90;743.30;;;;;;;-2.59;100.00;68209.75;5351413;33;35076;-83
2024/01/29 06:08:10;;;;;;;1999.90;666.70;;;;;;;-2.58;100.00;68211.47;5341634;33;34507;-83
2024/01/29 06:11:14;;;;;;;1999.90;509.02;;;;;;;-2.60;100.00;68211.22;5341933;33;34314;-83
2024/01/29 06:14:18;;;;;;;1999.90;553.55;;;;;;;-2.61;100.00;68205.41;5343850;33;34489;-83
2024/01/29 06:17:22;;;;;;;1999.90;517.25;;;;;;;-2.64;100.00;68201.38;5343400;33;33915;-84
2024/01/29 06:20:24;;;;;;;1999.90;749.88;;;;;;;-2.42;100.00;68226.09;5346386;33;33942;-83
2024/01/29 06:23:28;;;;;;;1999.90;762.10;;;;;;;-2.45;100.00;68225.84;5341963;33;33965;-84
2024/01/29 06:26:33;;;;;;;1999.90;537.95;;;;;;;-2.48;100.00;68219.78;5355096;33;34795;-84
2024/01/29 06:29:36;;;;;;;1999.90;556.33;;;;;;;-2.49;100.00;68218.63;5346429;33;33939;-84
2024/01/29 06:32:39;;;;;;;1999.90;606.55;;;;;;;-2.40;100.00;68228.38;5341752;33;34651;-84
2024/01/29 06:35:42;;;;;;;1999.90;559.15;;;;;;;-2.33;100.00;68236.44;5335522;33;34034;-84
2024/01/29 06:38:45;;;;;;;1999.90;662.50;;;;;;;-2.29;100.00;68295.94;5330750;33;33901;-84
2024/01/29 06:41:50;;;;;;;1999.90;557.00;;;;;;;-2.17;100.00;68254.78;5338678;33;34921;-84
2024/01/29 06:44:54;;;;;;;1999.90;554.42;;;;;;;-1.93;100.00;68283.84;5353807;33;34130;-84
2024/01/29 06:48:00;;;;;;;1999.90;596.70;;;;;;;-1.62;100.00;68319.47;5341424;33;33690;-84
2024/01/29 06:51:04;;;;;;;1999.90;604.65;;;;;;;-1.58;100.00;68320.31;5346843;33;34108;-84
2024/01/29 06:54:07;;;;;;;1999.90;598.88;;;;;;;-1.61;100.00;68317.44;5342961;33;33995;-85
2024/01/29 06:57:10;;;;;;;1999.90;582.08;;;;;;;-1.41;100.00;68337.81;5345413;33;34865;-84
2024/01/29 07:00:13;;;;;;;1999.90;648.35;;;;;;;-1.42;100.00;68338.72;5346272;33;33794;-84
2024/01/29 07:03:16;;;;;;;1999.90;717.12;;;;;;;-1.26;100.00;68359.72;5356511;33;34166;-84
2024/01/29 07:06:19;;;;;;;1999.90;684.47;;;;;;;-1.22;100.00;68364.31;5335442;33;33830;-84
2024/01/29 07:09:22;;;;;;;1999.90;694.03;;;;;;;-1.04;100.00;68381.25;5346570;33;33987;-84
2024/01/29 07:12:28;;;;;;;1999.90;763.53;;;;;;;-0.95;100.00;68388.97;5343630;33;33966;-84
2024/01/29 07:15:31;;;;;;;1999.90;744.62;;;;;;;-0.88;100.00;68397.03;5336204;33;34369;-84
2024/01/29 07:18:36;;;;;;;1999.90;774.85;;;;;;;-0.65;100.00;68482.66;5351848;33;33830;-84
2024/01/29 07:21:41;;;;;;;1999.90;761.58;;;;;;;-0.56;100.00;68441.13;5341081;33;33664;-85
2024/01/29 07:24:46;;;;;;;1999.90;767.00;;;;;;;-0.28;100.00;68466.97;5330516;33;34255;-85
2024/01/29 07:27:49;;;;;;;1999.90;845.70;;;;;;;0.03;100.00;68499.47;5346910;33;34021;-90
2024/01/29 07:30:53;;;;;;;1999.90;867.30;;;;;;;0.39;100.00;68545.03;5346727;33;34308;-89
2024/01/29 07:33:56;;;;;;;1999.90;899.53;;;;;;;0.82;100.00;68593.97;5346086;33;34971;-89
2024/01/29 07:36:59;;;;;;;1999.90;924.00;;;;;;;1.35;100.00;68653.91;5348371;33;34614;-87
2024/01/29 07:40:03;;;;;;;1999.90;992.92;;;;;;;2.06;100.00;68733.47;5349972;33;34199;-85
2024/01/29 07:43:06;;;;;;;1999.90;999.90;;;;;;;2.29;100.00;68758.88;5351444;33;34368;-85
2024/01/29 07:46:12;;;;;;;1999.90;985.62;;;;;;;2.25;100.00;68752.19;5359404;33;33789;-86
2024/01/29 07:49:15;;;;;;;1999.90;996.30;;;;;;;2.06;100.00;68733.47;5354857;33;33966;-86
2024/01/29 07:52:18;;;;;;;1999.90;983.65;;;;;;;1.87;100.00;68708.91;5389983;27;35003;-85
2024/01/29 07:55:23;;;;;;;1999.90;999.90;;;;;;;1.65;100.00;68687.34;5310065;33;32206;-85
2024/01/29 07:58:25;;;;;;;1999.90;980.72;;;;;;;1.47;100.00;68667.16;5326699;33;34918;-84
2024/01/29 08:01:28;;;;;;;1999.90;999.90;;;;;;;1.45;100.00;68664.28;5314128;33;34035;-84
2024/01/29 08:04:32;;;;;;;1999.90;999.90;;;;;;;1.46;100.00;68663.38;5308613;33;33995;-84
2024/01/29 08:07:35;;;;;;;1999.90;999.90;;;;;;;1.61;100.00;68679.50;5318976;33;34600;-84
2024/01/29 08:10:38;;;;;;;1999.90;996.97;;;;;;;1.70;100.00;68690.47;5326068;33;34135;-84
2024/01/29 08:13:40;;;;;;;1999.90;999.90;;;;;;;1.80;100.00;68701.44;5312143;33;34596;-85
2024/01/29 08:16:43;;;;;;;1999.90;999.90;;;;;;;2.03;100.00;68730.59;5310698;33;33894;-85
2024/01/29 08:19:46;;;;;;;1999.90;950.83;;;;;;;2.46;100.00;68776.41;5297552;33;34786;-86
2024/01/29 08:22:51;;;;;;;1999.90;999.90;;;;;;;2.73;100.00;68809.06;5313495;33;34014;-85
2024/01/29 08:25:54;;;;;;;1999.90;999.90;;;;;;;2.69;100.00;68805.03;5324337;33;35495;-84
2024/01/29 08:28:58;;;;;;;1999.90;968.97;;;;;;;2.87;100.00;68825.22;5319238;33;34867;-85
2024/01/29 08:32:00;;;;;;;1999.90;956.03;;;;;;;2.69;100.00;68860.41;5325874;33;34182;-85
2024/01/29 08:35:04;;;;;;;1999.90;960.80;;;;;;;2.85;100.00;68820.28;5336972;33;34848;-85
2024/01/29 08:38:07;;;;;;;1999.90;999.90;;;;;;;2.76;100.00;68811.94;5355917;33;34723;-86
2024/01/29 08:41:12;;;;;;;1999.90;972.12;;;;;;;2.89;100.00;68830.16;5347034;33;34719;-85
2024/01/29 08:44:15;;;;;;;1999.90;999.90;;;;;;;3.01;100.00;68838.16;5341690;33;34712;-85
2024/01/29 08:47:18;;;;;;;1999.90;999.62;;;;;;;3.00;100.00;68844.34;5315080;33;34726;-85
2024/01/29 08:50:21;;;;;;;1999.90;999.90;;;;;;;3.18;100.00;68860.44;5342032;33;34093;-85
2024/01/29 08:53:25;;;;;;;1999.90;971.63;;;;;;;3.06;100.00;68848.63;5320125;33;34203;-84
2024/01/29 08:56:29;;;;;;;1999.90;998.35;;;;;;;3.27;100.00;68928.31;5339513;33;34380;-85
2024/01/29 08:59:32;;;;;;;1999.90;972.38;;;;;;;3.38;100.00;68882.38;5313411;33;34162;-85
2024/01/29 09:02:37;;;;;;;1999.90;919.47;;;;;;;3.31;100.00;68871.66;5313555;33;33993;-85
2024/01/29 09:05:42;;;;;;;1999.90;958.65;;;;;;;3.26;100.00;68871.16;5322984;33;34937;-86
2024/01/29 09:08:44;;;;;;;1999.90;887.17;;;;;;;3.52;100.00;68900.63;5336359;33;33925;-86
2024/01/29 09:11:47;;;;;;;1999.90;991.62;;;;;;;3.69;100.00;68914.97;5326193;33;36671;-85
2024/01/29 09:14:50;;;;;;;1999.90;968.88;;;;;;;3.72;100.00;68923.72;5324535;33;34154;-85
2024/01/29 09:17:53;;;;;;;1999.90;999.90;;;;;;;3.78;100.00;68930.66;5315875;33;34344;-86
2024/01/29 09:20:58;;;;;;;1999.90;995.58;;;;;;;3.78;100.00;68924.78;5323853;33;33708;-85
2024/01/29 09:24:01;;;;;;;1999.90;925.28;;;;;;;4.03;100.00;68958.38;5318405;33;33612;-84
2024/01/29 09:27:04;;;;;;;1999.90;968.10;;;;;;;4.19;100.00;68974.25;5313917;33;34847;-83
2024/01/29 09:30:08;;;;;;;1999.90;943.15;;;;;;;3.94;100.00;68943.28;5331325;33;33861;-84
2024/01/29 09:33:16;;;;;;;1999.90;927.00;;;;;;;4.08;100.00;68958.88;5325231;33;34888;-85
2024/01/29 09:36:24;;;;;;;1999.90;932.08;;;;;;;4.12;100.00;68966.13;5342111;33;34063;-90
2024/01/29 09:39:27;;;;;;;1999.90;906.90;;;;;;;4.30;100.00;68986.97;5349932;33;33871;-90
2024/01/29 09:42:33;;;;;;;1999.90;923.60;;;;;;;4.26;100.00;69037.84;5329537;33;34560;-86
2024/01/29 09:45:37;;;;;;;1999.90;940.67;;;;;;;4.59;100.00;69021.97;5345987;33;34203;-85
2024/01/29 09:48:41;;;;;;;1999.90;945.63;;;;;;;4.52;100.00;69009.16;5338877;33;33933;-86
2024/01/29 09:51:47;;;;;;;1999.90;879.78;;;;;;;4.47;100.00;69005.44;5335696;33;34076;-86
2024/01/29 09:54:51;;;;;;;1999.90;961.17;;;;;;;4.68;100.00;69026.50;5331305;33;34739;-86
2024/01/29 09:57:54;;;;;;;1999.90;897.53;;;;;;;4.73;100.00;69035.50;5326444;33;34113;-85
2024/01/29 10:00:59;;;;;;;1999.90;935.53;;;;;;;4.99;100.00;69065.00;5333435;33;33518;-86
2024/01/29 10:04:02;;;;;;;1999.90;860.60;;;;;;;4.97;100.00;69062.69;5335713;33;33794;-85
2024/01/29 10:07:05;;;;;;;1999.90;853.05;;;;;;;5.08;100.00;69074.81;5321749;33;34540;-85
2024/01/29 10:10:09;;;;;;;1999.90;857.53;;;;;;;5.23;100.00;69094.84;5338811;33;33915;-86
2024/01/29 10:13:13;;;;;;;1999.90;870.83;;;;;;;5.32;100.00;69104.09;5340686;33;34570;-86
2024/01/29 10:16:16;;;;;;;1999.90;885.03;;;;;;;5.57;100.00;69130.38;5329555;33;34352;-85
2024/01/29 10:19:19;;;;;;;1999.90;915.30;;;;;;;5.43;100.00;69114.75;5327779;33;148196;-85
2024/01/29 10:22:25;;;;;;;1999.90;901.28;;;;;;;5.53;100.00;69125.16;5339558;33;33962;-85
2024/01/29 10:25:29;;;;;;;1999.90;879.63;;;;;;;5.57;100.00;69135.09;5333134;33;34785;-85
2024/01/29 10:28:32;;;;;;;1999.90;896.45;;;;;;;5.72;100.00;69146.56;5333663;33;34080;-85
2024/01/29 10:31:36;;;;;;;1999.90;881.55;;;;;;;5.86;100.00;69162.78;5312898;33;34128;-85
2024/01/29 10:34:39;;;;;;;1999.90;919.25;;;;;;;5.94;98.33;69168.81;5341169;33;34255;-85
2024/01/29 10:37:47;;;;;;;1986.78;835.10;;;;;;;6.07;96.42;69184.47;5346065;33;34766;-86
2024/01/29 10:40:53;;;;;;;1999.90;840.45;;;;;;;6.08;92.37;69185.63;5333297;33;33953;-88
2024/01/29 10:43:58;;;;;;;1999.90;893.90;;;;;;;6.02;90.69;69181.31;5309965;33;34697;-89
2024/01/29 10:47:08;;;;;;;1924.43;794.80;;;;;;;6.09;90.34;69189.44;5318529;33;34064;-87
2024/01/29 10:50:16;;;;;;;1999.90;904.85;;;;;;;6.03;91.75;69182.50;5338654;33;34684;-85
2024/01/29 10:53:20;;;;;;;1997.07;822.87;;;;;;;6.11;89.28;69194.41;5340265;33;33542;-85
2024/01/29 10:56:23;;;;;;;1998.20;836.20;;;;;;;6.13;88.17;69196.72;5327036;33;34161;-85
2024/01/29 10:59:26;;;;;;;1999.90;909.80;;;;;;;6.19;88.30;69199.84;5326863;33;34677;-85
2024/01/29 11:02:30;;;;;;;1999.85;818.58;;;;;;;6.32;85.70;69217.56;5342164;33;34133;-85
2024/01/29 11:05:34;;;;;;;1999.90;968.75;;;;;;;6.19;86.08;69200.44;5341753;33;34115;-86
2024/01/29 11:08:40;;;;;;;1999.90;883.10;;;;;;;6.24;87.78;69208.28;5329701;33;34366;-85
2024/01/29 11:11:46;;;;;;;1961.47;810.47;;;;;;;6.42;87.61;69231.78;5339139;33;34158;-85
2024/01/29 11:14:59;;;;;;;1999.90;887.92;;;;;;;6.52;86.46;69242.78;5338593;33;35843;-86
2024/01/29 11:18:04;;;;;;;1999.90;840.92;;;;;;;6.76;84.28;69264.72;5322750;33;33186;-89
2024/01/29 11:21:10;;;;;;;1978.50;802.97;;;;;;;6.76;79.38;69264.72;5345522;33;35514;-90
2024/01/29 11:24:13;;;;;;;1999.90;942.13;;;;;;;6.84;80.12;69270.75;5344717;33;34095;-87
2024/01/29 11:27:16;;;;;;;1999.90;773.05;;;;;;;6.85;80.01;69275.16;5328087;33;34103;-86
2024/01/29 11:30:21;;;;;;;1773.50;736.00;;;;;;;6.94;80.39;69287.66;5337440;33;33999;-86
2024/01/29 11:33:24;;;;;;;1917.22;722.45;;;;;;;7.23;78.92;69374.41;5335641;33;34312;-86
2024/01/29 11:36:27;;;;;;;1819.57;691.95;;;;;;;7.46;78.14;69344.09;5326556;33;33724;-86
2024/01/29 11:39:30;;;;;;;1688.95;642.42;;;;;;;7.81;75.72;69386.75;5338115;33;34409;-86
2024/01/29 11:42:33;;;;;;;1512.47;652.60;;;;;;;8.07;74.48;69413.06;5339203;33;34433;-86
2024/01/29 11:45:36;;;;;;;1150.00;511.12;;;;;;;8.65;72.50;69481.91;5334258;33;33971;-86
2024/01/29 11:48:40;;;;;;;1506.25;664.78;;;;;;;8.82;66.53;69501.03;5315011;33;34293;-85
2024/01/29 11:51:43;;;;;;;999.25;495.50;;;;;;;8.80;67.50;69499.31;5340155;33;34027;-85
2024/01/29 11:54:46;;;;;;;912.17;454.05;;;;;;;8.89;64.12;69506.50;5342375;33;34323;-85
2024/01/29 11:57:53;;;;;;;942.25;451.13;;;;;;;9.48;62.14;69579.19;5343290;33;34253;-86
2024/01/29 12:00:57;;;;;;;856.87;412.77;;;;;;;9.82;60.18;69611.59;5348604;33;34226;-86
2024/01/29 12:04:01;;;;;;;880.30;465.88;;;;;;;10.46;58.35;69686.91;5345259;33;34692;-86
2024/01/29 12:07:04;;;;;;;723.67;406.17;;;;;;;10.94;56.62;69741.53;5333508;33;34054;-85
2024/01/29 12:10:11;;;;;;;718.25;385.92;;;;;;;11.24;53.65;69779.09;5335811;33;33841;-86
2024/01/29 12:13:20;;;;;;;680.55;389.45;;;;;;;11.62;50.32;69821.56;5343655;33;33854;-86
2024/01/29 12:16:24;;;;;;;575.47;363.77;;;;;;;12.27;48.83;69895.50;5336217;33;34338;-86
2024/01/29 12:19:27;;;;;;;506.58;312.00;;;;;;;12.45;47.99;69917.03;5334555;33;34098;-86
2024/01/29 12:22:31;;;;;;;435.45;293.92;;;;;;;13.22;46.92;70004.38;5326550;33;34741;-86
2024/01/29 12:25:36;;;;;;;333.10;255.62;;;;;;;14.10;42.59;70104.03;5329242;33;34863;-86
2024/01/29 12:28:39;;;;;;;233.32;200.93;;;;;;;14.40;40.88;70135.75;5332899;33;34704;-86
2024/01/29 12:31:42;;;;;;;143.25;128.30;;;;;;;16.16;36.89;70339.78;5336842;33;33948;-86
2024/01/29 12:34:46;;;;;;;91.97;82.97;;;;;;;17.81;34.07;70525.88;5343043;33;34062;-86
2024/01/29 12:37:49;;;;;;;47.00;42.70;;;;;;;18.05;33.18;70561.44;5344631;33;34030;-85
2024/01/29 12:40:58;;;;;;;20.58;13.43;;;;;;;18.56;33.28;70617.22;5343929;33;34156;-86
2024/01/29 12:44:11;;;;;;;36.90;19.55;;;;;;;18.88;31.55;70653.53;5344023;33;34964;-86
2024/01/29 12:47:15;;;;;;;18.17;12.57;;;;;;;20.43;29.00;70830.97;5344464;33;34798;-86
2024/01/29 12:50:18;;;;;;;22.00;19.77;;;;;;;20.83;28.85;70880.00;5331408;33;34478;-86
2024/01/29 12:53:21;;;;;;;22.83;20.58;;;;;;;21.95;27.09;71005.69;5320216;33;34382;-86
2024/01/29 12:56:30;;;;;;;20.40;18.65;;;;;;;21.70;27.43;70979.09;5343749;33;34010;-86
2024/01/29 12:59:33;;;;;;;;;;;;;;;21.83;26.31;70994.34;5344446;33;33612;-86
2024/01/29 13:02:36;;;;;;;19.67;17.75;;;;;;;20.87;27.37;70886.22;5319156;33;35072;-90
2024/01/29 13:05:39;;;;;;;33.30;30.55;;;;;;;19.13;29.58;70681.63;5330551;33;33818;-90
2024/01/29 13:08:43;;;;;;;17.67;15.80;;;;;;;19.26;29.71;70691.41;5331272;33;34606;-90
2024/01/29 13:11:48;;;;;;;32.80;29.48;;;;;;;19.85;28.65;70766.91;5330587;33;33670;-90
2024/01/29 13:14:51;;;;;;;26.70;24.48;;;;;;;17.16;31.70;70456.41;5330907;33;34051;-87
2024/01/29 13:17:54;;;;;;;35.38;31.27;;;;;;;16.56;33.35;70388.03;5319376;33;34292;-86
2024/01/29 13:20:57;;;;;;;22.80;20.70;;;;;;;14.45;36.94;70146.94;5331214;33;34521;-86
2024/01/29 13:24:04;;;;;;;192.20;136.40;;;;;;;11.96;41.74;69857.88;5346344;33;34079;-86
2024/01/29 13:27:09;;;;;;;161.32;102.47;;;;;;;10.54;44.82;69696.22;5341600;33;34325;-86
2024/01/29 13:30:13;;;;;;;286.27;213.95;;;;;;;9.65;48.17;69592.41;5323981;33;34096;-86
2024/01/29 13:33:16;;;;;;;404.20;277.15;;;;;;;8.79;52.39;69494.91;5333844;33;34457;-85
2024/01/29 13:36:19;;;;;;;447.20;300.70;;;;;;;8.24;53.40;69438.13;5333182;33;35316;-85
2024/01/29 13:39:23;;;;;;;555.92;338.85;;;;;;;7.92;55.35;69398.91;5314353;33;34086;-85
2024/01/29 13:42:26;;;;;;;663.67;360.65;;;;;;;7.59;57.97;69361.81;5337558;33;34071;-86
2024/01/29 13:45:29;;;;;;;735.45;444.88;;;;;;;7.48;59.16;69346.41;5349947;33;34061;-85
2024/01/29 13:48:33;;;;;;;810.28;439.85;;;;;;;7.14;59.85;69307.59;5347679;33;34341;-86
2024/01/29 13:51:38;;;;;;;986.45;532.50;;;;;;;7.16;61.14;69309.91;5341908;33;34132;-86
2024/01/29 13:54:42;;;;;;;923.08;525.12;;;;;;;6.90;63.10;69283.00;5339500;33;34489;-85
2024/01/29 13:57:45;;;;;;;1323.43;591.03;;;;;;;6.75;62.28;69269.44;5344579;33;34273;-86
2024/01/29 14:00:48;;;;;;;1224.28;556.83;;;;;;;6.67;64.49;69259.59;5342903;33;33772;-86
2024/01/29 14:03:53;;;;;;;1542.00;664.42;;;;;;;6.51;65.17;69241.63;5335124;33;35515;-85
2024/01/29 14:07:00;;;;;;;1712.40;723.08;;;;;;;6.31;66.96;69213.75;5347440;33;33954;-84
2024/01/29 14:10:04;;;;;;;1940.82;736.67;;;;;;;6.21;66.91;69202.16;5339134;33;34605;-84
2024/01/29 14:13:08;;;;;;;1999.28;767.47;;;;;;;6.17;69.06;69198.09;5349673;33;34517;-85
2024/01/29 14:16:12;;;;;;;1999.90;807.50;;;;;;;6.12;67.70;69197.63;5336283;33;34761;-85
2024/01/29 14:19:16;;;;;;;1999.90;795.78;;;;;;;6.03;68.84;69185.13;5332880;33;34619;-85
2024/01/29 14:22:20;;;;;;;1999.90;864.05;;;;;;;5.94;69.86;69174.72;5319154;33;33975;-84
2024/01/29 14:25:24;;;;;;;1999.90;781.37;;;;;;;5.93;70.09;69170.31;5347059;33;35734;-83
2024/01/29 14:28:28;;;;;;;1999.90;885.20;;;;;;;5.95;69.76;69228.91;5349131;33;34101;-84
2024/01/29 14:31:31;;;;;;;1999.90;905.22;;;;;;;5.96;67.14;69174.38;5317986;33;34751;-85
2024/01/29 14:34:34;;;;;;;1999.90;972.20;;;;;;;5.87;68.22;69166.59;5339591;33;34858;-84
2024/01/29 14:37:40;;;;;;;1999.90;927.50;;;;;;;5.97;66.45;69183.50;5332191;33;34118;-83
2024/01/29 14:40:43;;;;;;;1999.90;948.85;;;;;;;5.88;66.04;69165.69;5333430;33;35553;-83
2024/01/29 14:43:47;;;;;;;1999.90;883.50;;;;;;;5.79;66.93;69154.66;5331525;33;33640;-84
2024/01/29 14:46:50;;;;;;;1999.90;974.58;;;;;;;5.78;66.89;69154.09;5304815;33;34211;-84
2024/01/29 14:49:54;;;;;;;1999.90;855.87;;;;;;;5.60;68.30;69136.50;5314975;33;34631;-84
2024/01/29 14:52:57;;;;;;;1999.90;998.15;;;;;;;5.48;69.91;69122.59;5316872;33;34474;-83
2024/01/29 14:56:00;;;;;;;1999.90;955.33;;;;;;;5.36;70.25;69109.31;5306886;33;33850;-85
2024/01/29 14:59:03;;;;;;;1999.90;983.70;;;;;;;5.29;71.72;69101.19;5325630;33;34357;-84
2024/01/29 15:02:09;;;;;;;1999.90;917.30;;;;;;;5.18;73.02;69086.41;5347826;33;34140;-85
2024/01/29 15:05:14;;;;;;;1999.90;944.35;;;;;;;5.19;74.04;69089.63;5347058;33;34154;-85
2024/01/29 15:08:18;;;;;;;1999.90;998.05;;;;;;;5.17;73.41;69087.31;5334976;33;34079;-84
2024/01/29 15:11:21;;;;;;;1999.90;932.25;;;;;;;5.24;74.14;69092.78;5323179;33;33912;-85
2024/01/29 15:14:24;;;;;;;1999.90;940.35;;;;;;;5.12;75.72;69084.75;5346284;33;34383;-86
2024/01/29 15:17:27;;;;;;;1999.90;953.30;;;;;;;5.06;76.36;69074.59;5335556;33;33954;-85
2024/01/29 15:20:34;;;;;;;1999.90;999.90;;;;;;;4.95;78.88;69063.03;5351671;33;34611;-84
2024/01/29 15:23:37;;;;;;;1999.90;926.83;;;;;;;4.89;79.26;69052.88;5349829;33;33968;-85
2024/01/29 15:26:40;;;;;;;1999.90;997.67;;;;;;;4.80;80.36;69045.69;5355270;33;35596;-84
2024/01/29 15:29:43;;;;;;;1999.90;992.22;;;;;;;4.73;82.56;69040.22;5347145;33;34090;-85
2024/01/29 15:32:47;;;;;;;1999.90;952.22;;;;;;;4.58;82.71;69014.94;5341599;33;34420;-85
2024/01/29 15:35:50;;;;;;;1999.90;992.30;;;;;;;4.47;84.09;69005.44;5356580;33;34958;-84
2024/01/29 15:38:53;;;;;;;1999.90;924.25;;;;;;;4.45;84.45;69003.16;5348622;33;34558;-84
2024/01/29 15:41:56;;;;;;;1999.90;999.90;;;;;;;4.33;86.36;68989.84;5359477;33;33972;-84
2024/01/29 15:44:59;;;;;;;1999.90;999.90;;;;;;;4.29;87.30;68985.22;5358294;33;34385;-84
2024/01/29 15:48:02;;;;;;;1999.90;952.28;;;;;;;4.29;88.04;68987.84;5357651;33;34279;-84
2024/01/29 15:51:06;;;;;;;1999.90;989.97;;;;;;;4.18;90.49;68975.72;5373029;33;35611;-84
2024/01/29 15:54:10;;;;;;;1999.90;978.45;;;;;;;4.12;91.64;68966.13;5372159;33;34203;-84
2024/01/29 15:57:13;;;;;;;1999.90;989.97;;;;;;;4.02;93.75;68954.59;5374800;33;34721;-84
2024/01/29 16:00:16;;;;;;;1999.90;999.90;;;;;;;3.99;94.62;68954.34;5364640;33;34329;-84
2024/01/29 16:03:19;;;;;;;1999.90;999.90;;;;;;;3.86;99.79;68936.66;5357455;33;34845;-83
2024/01/29 16:06:22;;;;;;;1999.90;999.87;;;;;;;3.73;100.00;68924.88;5358482;33;32346;-84
2024/01/29 16:09:26;;;;;;;1999.90;986.03;;;;;;;3.54;100.00;68903.50;5357882;33;32930;-84
2024/01/29 16:12:29;;;;;;;1999.90;995.42;;;;;;;3.40;100.00;68887.91;5353904;33;34017;-85
2024/01/29 16:15:34;;;;;;;1999.90;998.85;;;;;;;3.29;100.00;68872.56;5371399;33;35305;-85
2024/01/29 16:18:37;;;;;;;1999.90;997.58;;;;;;;3.20;100.00;68864.22;5369239;33;33010;-85
2024/01/29 16:21:42;;;;;;;1999.90;944.33;;;;;;;3.12;100.00;68850.28;5358640;33;34299;-84
2024/01/29 16:24:44;;;;;;;1999.90;999.90;;;;;;;3.04;100.00;68843.69;5371809;33;33795;-84
2024/01/29 16:27:49;;;;;;;1999.90;999.90;;;;;;;2.99;100.00;68835.88;5358027;33;34095;-85
2024/01/29 16:30:52;;;;;;;1999.90;998.85;;;;;;;2.85;100.00;68820.28;5367064;33;34364;-84
2024/01/29 16:33:56;;;;;;;1999.90;999.90;;;;;;;2.77;100.00;68813.66;5355278;33;34684;-84
2024/01/29 16:36:59;;;;;;;1999.90;999.90;;;;;;;2.76;100.00;68812.53;5351191;33;33990;-84
2024/01/29 16:40:04;;;;;;;1999.90;953.25;;;;;;;2.74;100.00;68807.56;5366226;33;34868;-84
2024/01/29 16:43:12;;;;;;;;;;;;;;;2.70;100.00;68802.97;5367675;33;34471;-84
2024/01/29 16:46:15;;;;;;;1999.90;999.90;;;;;;;2.68;100.00;68805.91;5366613;33;34406;-84
2024/01/29 16:49:21;;;;;;;1999.90;999.90;;;;;;;2.61;100.00;68795.78;5349687;33;33816;-84
2024/01/29 16:52:24;;;;;;;1999.90;999.13;;;;;;;2.55;100.00;68793.56;5337008;33;34494;-84
